createdAt,value
2023-03-30T00:01:30.807Z,0.00
2023-03-30T00:06:29.117Z,0.00
2023-03-30T00:11:28.470Z,0.00
2023-03-30T00:16:27.895Z,0.00
2023-03-30T00:21:27.016Z,0.00
2023-03-30T00:26:26.333Z,0.00
2023-03-30T00:31:26.021Z,0.00
2023-03-30T00:36:25.938Z,0.00
2023-03-30T00:41:24.077Z,0.00
2023-03-30T00:46:23.238Z,0.00
2023-03-30T00:51:22.585Z,0.00
2023-03-30T00:56:21.732Z,0.00
2023-03-30T01:01:18.977Z,0.00
2023-03-30T01:06:20.274Z,0.00
2023-03-30T01:11:19.524Z,0.00
2023-03-30T01:16:18.823Z,0.00
2023-03-30T01:21:18.052Z,0.00
2023-03-30T01:26:16.192Z,0.00
2023-03-30T01:31:16.434Z,0.00
2023-03-30T01:36:15.700Z,0.00
2023-03-30T01:41:14.855Z,0.00
2023-03-30T01:46:14.985Z,0.00
2023-03-30T01:51:13.304Z,0.00
2023-03-30T01:56:12.620Z,0.00
2023-03-30T02:01:11.980Z,0.00
2023-03-30T02:06:11.092Z,0.00
2023-03-30T02:11:10.343Z,0.00
2023-03-30T02:16:09.609Z,0.00
2023-03-30T02:21:08.710Z,0.00
2023-03-30T02:26:09.048Z,0.00
2023-03-30T02:31:08.106Z,0.00
2023-03-30T02:36:06.401Z,0.00
2023-03-30T02:41:06.091Z,0.00
2023-03-30T02:46:08.031Z,0.00
2023-03-30T02:51:04.524Z,0.00
2023-03-30T02:56:04.428Z,0.00
2023-03-30T03:01:03.006Z,0.00
2023-03-30T03:06:01.832Z,0.00
2023-03-30T03:11:00.962Z,0.00
2023-03-30T03:16:01.630Z,0.00
2023-03-30T03:20:59.462Z,0.00
2023-03-30T03:25:57.638Z,0.00
2023-03-30T03:30:57.970Z,0.00
2023-03-30T03:35:56.284Z,0.00
2023-03-30T03:40:56.399Z,0.00
2023-03-30T03:45:55.552Z,0.00
2023-03-30T03:50:54.840Z,0.00
2023-03-30T03:55:53.956Z,0.00
2023-03-30T04:00:54.308Z,0.00
2023-03-30T04:05:53.379Z,0.00
2023-03-30T04:10:51.720Z,0.00
2023-03-30T04:15:52.074Z,0.00
2023-03-30T04:20:51.194Z,0.00
2023-03-30T04:25:49.488Z,0.00
2023-03-30T04:30:48.810Z,0.00
2023-03-30T04:35:48.133Z,0.00
2023-03-30T04:40:47.260Z,0.00
2023-03-30T04:45:47.566Z,0.00
2023-03-30T04:50:46.951Z,0.00
2023-03-30T04:55:44.124Z,0.00
2023-03-30T05:00:44.260Z,0.00
2023-03-30T05:05:44.550Z,0.00
2023-03-30T05:10:41.893Z,0.00
2023-03-30T05:15:41.995Z,0.00
2023-03-30T05:20:41.318Z,0.00
2023-03-30T05:25:38.606Z,0.00
2023-03-30T05:30:40.889Z,0.00
2023-03-30T05:35:39.222Z,0.00
2023-03-30T05:40:38.345Z,0.00
2023-03-30T05:45:39.489Z,0.00
2023-03-30T05:50:36.766Z,0.00
2023-03-30T05:55:36.049Z,0.00
2023-03-30T06:00:35.316Z,0.00
2023-03-30T06:05:34.619Z,0.00
2023-03-30T06:10:32.945Z,0.00
2023-03-30T06:15:34.079Z,0.00
2023-03-30T06:20:33.365Z,0.00
2023-03-30T06:25:31.715Z,8.00
2023-03-30T06:30:29.962Z,4.00
2023-03-30T06:35:30.388Z,12.00
2023-03-30T06:40:28.336Z,16.00
2023-03-30T06:45:28.753Z,16.00
2023-03-30T06:50:28.045Z,16.00
2023-03-30T06:55:26.484Z,12.00
2023-03-30T07:00:26.721Z,16.00
2023-03-30T07:05:27.059Z,20.00
2023-03-30T07:10:24.967Z,24.00
2023-03-30T07:15:24.227Z,8.00
2023-03-30T07:20:23.432Z,8.00
2023-03-30T07:25:22.747Z,12.00
2023-03-30T07:30:21.993Z,12.00
2023-03-30T07:35:21.162Z,16.00
2023-03-30T07:40:20.565Z,12.00
2023-03-30T07:45:19.579Z,12.00
2023-03-30T07:50:19.025Z,20.00
2023-03-30T07:55:17.255Z,8.00
2023-03-30T08:00:17.479Z,12.00
2023-03-30T08:05:16.618Z,12.00
2023-03-30T08:10:15.738Z,12.00
2023-03-30T08:15:14.825Z,12.00
2023-03-30T08:20:14.133Z,12.00
2023-03-30T08:25:13.351Z,12.00
2023-03-30T08:30:12.600Z,16.00
2023-03-30T08:35:12.047Z,28.00
2023-03-30T08:40:10.249Z,24.00
2023-03-30T08:45:09.472Z,24.00
2023-03-30T08:50:09.816Z,28.00
2023-03-30T08:55:07.968Z,28.00
2023-03-30T09:00:07.162Z,20.00
2023-03-30T09:05:07.539Z,20.00
2023-03-30T09:10:06.608Z,32.00
2023-03-30T09:15:12.027Z,44.00
2023-03-30T09:20:04.136Z,20.00
2023-03-30T09:25:03.396Z,28.00
2023-03-30T09:30:03.673Z,20.00
2023-03-30T09:35:01.870Z,28.00
2023-03-30T09:40:02.005Z,36.00
2023-03-30T09:45:01.180Z,32.00
2023-03-30T09:50:00.364Z,20.00
2023-03-30T09:54:58.678Z,16.00
2023-03-30T09:59:59.241Z,24.00
2023-03-30T10:04:58.477Z,28.00
2023-03-30T10:09:57.487Z,28.00
2023-03-30T10:14:56.622Z,16.00
2023-03-30T10:20:07.299Z,24.00
2023-03-30T10:24:54.349Z,20.00
2023-03-30T10:29:54.704Z,28.00
2023-03-30T10:34:53.629Z,24.00
2023-03-30T10:39:53.200Z,40.00
2023-03-30T10:44:52.138Z,28.00
2023-03-30T10:49:51.438Z,12.00
2023-03-30T10:54:49.542Z,12.00
2023-03-30T10:59:49.947Z,24.00
2023-03-30T11:04:49.209Z,24.00
2023-03-30T11:09:48.371Z,16.00
2023-03-30T11:14:47.507Z,16.00
2023-03-30T11:19:46.588Z,16.00
2023-03-30T11:24:44.925Z,12.00
2023-03-30T11:29:44.035Z,12.00
2023-03-30T11:34:44.295Z,20.00
2023-03-30T11:39:43.606Z,24.00
2023-03-30T11:44:42.828Z,36.00
2023-03-30T11:49:41.155Z,32.00
2023-03-30T11:54:44.945Z,56.00
2023-03-30T11:59:40.792Z,68.00
2023-03-30T12:04:38.880Z,52.00
2023-03-30T12:09:39.126Z,36.00
2023-03-30T12:14:38.398Z,32.00
2023-03-30T12:19:45.614Z,28.00
2023-03-30T12:24:35.980Z,20.00
2023-03-30T12:29:58.487Z,16.00
2023-03-30T12:34:34.355Z,28.00
2023-03-30T12:39:34.634Z,32.00
2023-03-30T12:44:33.984Z,24.00
2023-03-30T12:49:41.088Z,24.00
2023-03-30T12:54:32.398Z,16.00
2023-03-30T12:59:31.603Z,12.00
2023-03-30T13:04:29.824Z,8.00
2023-03-30T13:09:30.151Z,8.00
2023-03-30T13:14:29.256Z,8.00
2023-03-30T13:19:28.552Z,8.00
2023-03-30T13:24:27.781Z,8.00
2023-03-30T13:29:27.192Z,8.00
2023-03-30T13:34:26.315Z,4.00
2023-03-30T13:39:25.532Z,8.00
2023-03-30T13:44:26.006Z,12.00
2023-03-30T13:49:23.054Z,12.00
2023-03-30T13:54:24.653Z,8.00
2023-03-30T13:59:22.472Z,4.00
2023-03-30T14:04:21.809Z,16.00
2023-03-30T14:09:20.896Z,24.00
2023-03-30T14:14:20.094Z,24.00
2023-03-30T14:19:19.352Z,12.00
2023-03-30T14:24:17.577Z,12.00
2023-03-30T14:29:24.623Z,16.00
2023-03-30T14:34:17.100Z,48.00
2023-03-30T14:39:16.486Z,80.00
2023-03-30T14:44:15.821Z,56.00
2023-03-30T14:49:14.831Z,48.00
2023-03-30T14:54:14.049Z,32.00
2023-03-30T14:59:13.180Z,48.00
2023-03-30T15:04:12.557Z,48.00
2023-03-30T15:09:10.606Z,48.00
2023-03-30T15:14:10.692Z,36.00
2023-03-30T15:19:09.139Z,84.00
2023-03-30T15:24:09.458Z,52.00
2023-03-30T15:29:07.587Z,72.00
2023-03-30T15:34:08.144Z,56.00
2023-03-30T15:39:07.195Z,52.00
2023-03-30T15:44:05.338Z,60.00
2023-03-30T15:49:05.590Z,60.00
2023-03-30T15:54:04.847Z,64.00
2023-03-30T15:59:04.097Z,64.00
2023-03-30T16:04:02.410Z,64.00
2023-03-30T16:09:02.666Z,64.00
2023-03-30T16:14:00.868Z,60.00
2023-03-30T16:19:00.078Z,56.00
2023-03-30T16:24:00.230Z,56.00
2023-03-30T16:28:59.317Z,52.00
2023-03-30T16:33:58.663Z,52.00
2023-03-30T16:38:57.882Z,48.00
2023-03-30T16:43:57.855Z,44.00
2023-03-30T16:48:56.160Z,44.00
2023-03-30T16:53:54.751Z,40.00
2023-03-30T16:58:55.705Z,36.00
2023-03-30T17:03:53.847Z,28.00
2023-03-30T17:08:52.347Z,24.00
2023-03-30T17:13:51.242Z,20.00
2023-03-30T17:18:52.456Z,16.00
2023-03-30T17:23:50.511Z,8.00
2023-03-30T17:28:49.859Z,4.00
2023-03-30T17:33:48.980Z,4.00
2023-03-30T17:38:47.409Z,4.00
2023-03-30T17:43:48.605Z,4.00
2023-03-30T17:48:45.815Z,0.00
2023-03-30T17:53:45.032Z,0.00
2023-03-30T17:58:45.653Z,0.00
2023-03-30T18:03:44.762Z,16.00
2023-03-30T18:08:43.772Z,12.00
2023-03-30T18:13:43.042Z,12.00
2023-03-30T18:18:42.276Z,12.00
2023-03-30T18:23:41.463Z,12.00
2023-03-30T18:28:40.747Z,12.00
2023-03-30T18:33:40.877Z,16.00
2023-03-30T18:38:39.369Z,16.00
2023-03-30T18:43:39.656Z,16.00
2023-03-30T18:48:37.966Z,16.00
2023-03-30T18:53:38.048Z,12.00
2023-03-30T18:58:35.090Z,12.00
2023-03-30T19:03:37.242Z,16.00
2023-03-30T19:08:34.928Z,12.00
2023-03-30T19:13:35.050Z,12.00
2023-03-30T19:18:33.399Z,16.00
2023-03-30T19:23:31.562Z,12.00
2023-03-30T19:28:32.926Z,16.00
2023-03-30T19:33:31.251Z,16.00
2023-03-30T19:38:30.496Z,16.00
2023-03-30T19:43:30.464Z,16.00
2023-03-30T19:48:29.107Z,12.00
2023-03-30T19:53:28.267Z,8.00
2023-03-30T19:58:29.459Z,8.00
2023-03-30T20:03:26.628Z,8.00
2023-03-30T20:08:25.815Z,8.00
2023-03-30T20:13:25.059Z,8.00
2023-03-30T20:18:25.143Z,8.00
2023-03-30T20:23:22.742Z,8.00
2023-03-30T20:28:22.854Z,8.00
2023-03-30T20:33:22.964Z,8.00
2023-03-30T20:38:21.195Z,8.00
2023-03-30T20:43:20.553Z,8.00
2023-03-30T20:48:20.928Z,8.00
2023-03-30T20:53:18.914Z,8.00
2023-03-30T20:58:18.063Z,8.00
2023-03-30T21:03:17.210Z,8.00
2023-03-30T21:08:16.367Z,8.00
2023-03-30T21:13:15.538Z,8.00
2023-03-30T21:18:14.684Z,8.00
2023-03-30T21:23:13.883Z,8.00
2023-03-30T21:28:14.019Z,8.00
2023-03-30T21:33:12.180Z,8.00
2023-03-30T21:38:11.315Z,8.00
2023-03-30T21:43:10.693Z,8.00
2023-03-30T21:48:10.862Z,8.00
2023-03-30T21:53:09.025Z,8.00
2023-03-30T21:58:08.337Z,8.00
2023-03-30T22:03:08.546Z,8.00
2023-03-30T22:08:06.692Z,8.00
2023-03-30T22:13:07.019Z,8.00
2023-03-30T22:18:04.359Z,8.00
2023-03-30T22:23:06.525Z,8.00
2023-03-30T22:28:03.704Z,8.00
2023-03-30T22:33:05.100Z,8.00
2023-03-30T22:38:02.075Z,8.00
2023-03-30T22:43:01.227Z,8.00
2023-03-30T22:48:00.554Z,8.00
2023-03-30T22:52:59.690Z,8.00
2023-03-30T22:57:58.816Z,8.00
2023-03-30T23:02:58.611Z,0.00
2023-03-30T23:07:57.649Z,0.00
2023-03-30T23:12:56.914Z,0.00
2023-03-30T23:17:56.205Z,0.00
2023-03-30T23:22:55.476Z,0.00
2023-03-30T23:27:53.772Z,0.00
2023-03-30T23:32:49.835Z,0.00
2023-03-30T23:37:53.517Z,0.00
2023-03-30T23:42:52.572Z,0.00
2023-03-30T23:47:51.863Z,0.00
2023-03-30T23:52:51.033Z,0.00
2023-03-30T23:57:49.351Z,0.00
